Terminal Aerodrome Forecast
Issued by NWS Melbourne, FL

Home | Current Version | Previous Version | Text Only | Print | Product List | Glossary On
Versions: 1 2 3 4 5 6 7 8 9 10 11 12 13 14 15 16 17 18 19 20 21 22 23
225
FTUS42 KMLB 202325
TAFMCO
TAF
KMCO 202325Z 2100/2206 07005KT P6SM SCT040 BKN150
     FM211000 03003KT P6SM BKN120 BKN200
      TEMPO 2110/2112 5SM BR
     FM211600 08008KT P6SM SCT035 SCT120
     FM220000 07005KT P6SM FEW030 SCT250=

USA.gov is the U.S. government's official web portal to all federal, state and local government web resources and services.